Time;durP1;ratioP1;P1;durP2;ratioP2;P2;SDS_P1;SDS_P2;PMS_P1;PMS_P2;Temp;Humidity;BMP_temperature;BMP_pressure;BME280_temperature;BME280_humidity;BME280_pressure;Samples;Min_cycle;Max_cycle;Signal;HPM_P1;HPM_P2
2024/02/22 00:01:11;;;;;;;27.13;6.80;;;;;;;10.53;100.00;97192.28;5018031;28;20029;-63
2024/02/22 00:03:37;;;;;;;48.63;8.00;;;;;;;10.45;100.00;97190.69;5019770;28;20053;-61
2024/02/22 00:06:03;;;;;;;56.30;8.77;;;;;;;10.64;100.00;97191.25;5018094;28;20047;-63
2024/02/22 00:08:28;;;;;;;37.65;9.35;;;;;;;10.50;100.00;97178.50;5020127;28;20025;-61
2024/02/22 00:10:54;;;;;;;81.55;22.00;;;;;;;10.12;100.00;97173.81;5016630;28;20115;-62
2024/02/22 00:13:19;;;;;;;37.70;8.65;;;;;;;10.36;100.00;97170.88;5019268;28;20065;-61
2024/02/22 00:15:45;;;;;;;44.58;8.77;;;;;;;10.27;100.00;97167.53;5018382;28;20136;-60
2024/02/22 00:18:11;;;;;;;36.88;8.60;;;;;;;10.38;100.00;97158.69;5018196;28;20025;-61
2024/02/22 00:20:37;;;;;;;28.52;8.38;;;;;;;10.31;100.00;97157.09;5018550;28;20076;-61
2024/02/22 00:23:05;;;;;;;62.08;16.63;;;;;;;10.24;100.00;97141.56;5018592;28;20664;-63
2024/02/22 00:25:31;;;;;;;37.80;8.07;;;;;;;10.39;100.00;97131.81;5018738;28;20041;-60
2024/02/22 00:27:56;;;;;;;52.83;9.98;;;;;;;10.37;100.00;97123.19;5017362;28;20500;-62
2024/02/22 00:30:23;;;;;;;40.15;8.30;;;;;;;10.44;100.00;97127.44;5018133;28;20033;-59
2024/02/22 00:32:48;;;;;;;38.28;9.30;;;;;;;10.34;100.00;97116.31;5018079;28;20571;-60
2024/02/22 00:35:14;;;;;;;45.65;12.68;;;;;;;10.36;100.00;97100.69;5017751;28;20029;-58
2024/02/22 00:37:39;;;;;;;34.88;7.68;;;;;;;10.27;100.00;97088.69;5018369;28;20393;-60
2024/02/22 00:40:05;;;;;;;58.00;14.63;;;;;;;10.19;100.00;97083.63;5016536;28;20397;-63
2024/02/22 00:42:31;;;;;;;32.40;9.15;;;;;;;10.29;100.00;97076.53;5017939;28;20041;-64
2024/02/22 00:44:57;;;;;;;79.10;21.50;;;;;;;10.26;100.00;97067.06;5016916;28;20466;-60
2024/02/22 00:47:22;;;;;;;41.17;15.93;;;;;;;10.28;100.00;97057.47;5017821;28;20072;-64
2024/02/22 00:49:48;;;;;;;43.90;11.95;;;;;;;10.23;100.00;97045.44;5016581;28;20344;-61
2024/02/22 00:52:14;;;;;;;49.55;11.57;;;;;;;10.25;100.00;97038.50;5016762;28;20038;-61
2024/02/22 00:54:41;;;;;;;39.55;16.95;;;;;;;10.20;100.00;97028.16;5017308;28;20068;-62
2024/02/22 00:57:06;;;;;;;48.00;9.57;;;;;;;10.21;100.00;97027.28;5015700;28;20044;-64
2024/02/22 00:59:33;;;;;;;73.15;31.70;;;;;;;10.22;100.00;97022.94;5016784;28;20025;-60
2024/02/22 01:01:59;;;;;;;67.57;10.52;;;;;;;10.29;100.00;97015.00;5015304;28;20460;-60
2024/02/22 01:04:25;;;;;;;58.10;27.23;;;;;;;10.23;100.00;97009.94;5013664;28;20029;-60
2024/02/22 01:06:52;;;;;;;69.13;10.10;;;;;;;10.27;100.00;97006.41;5010278;28;20369;-59
2024/02/22 01:09:18;;;;;;;110.50;80.45;;;;;;;10.37;100.00;97009.69;5013202;28;20090;-60
2024/02/22 01:11:43;;;;;;;109.93;97.78;;;;;;;10.20;100.00;96997.00;5012251;28;20033;-60
2024/02/22 01:14:09;;;;;;;86.90;12.48;;;;;;;10.57;100.00;96994.63;5011070;28;20472;-62
2024/02/22 01:16:34;;;;;;;40.22;8.90;;;;;;;10.76;100.00;96990.78;5013444;28;20129;-61
2024/02/22 01:19:00;;;;;;;73.93;23.00;;;;;;;10.98;100.00;96979.91;5013350;28;20076;-62
2024/02/22 01:21:25;;;;;;;160.18;107.47;;;;;;;10.81;100.00;96968.13;5008601;28;20052;-61
2024/02/22 01:23:51;;;;;;;50.20;12.50;;;;;;;10.97;100.00;96964.34;5012662;28;20029;-62
2024/02/22 01:26:17;;;;;;;54.17;14.07;;;;;;;11.09;100.00;96947.63;5012512;28;20323;-62
2024/02/22 01:28:42;;;;;;;57.42;11.35;;;;;;;11.24;100.00;96947.25;5013668;28;20458;-64
2024/02/22 01:31:08;;;;;;;95.47;50.70;;;;;;;11.19;100.00;96933.50;5011403;28;20071;-62
2024/02/22 01:33:34;;;;;;;79.85;37.65;;;;;;;11.61;100.00;96929.91;5013814;28;20036;-62
2024/02/22 01:35:59;;;;;;;214.00;135.07;;;;;;;11.87;100.00;96920.59;5010949;28;20037;-60
2024/02/22 01:38:24;;;;;;;67.95;35.20;;;;;;;12.09;100.00;96923.53;5013731;28;20370;-62
2024/02/22 01:40:50;;;;;;;99.22;75.95;;;;;;;12.39;100.00;96911.47;5011488;28;20037;-59
2024/02/22 01:43:15;;;;;;;45.97;17.45;;;;;;;12.09;100.00;96894.84;5013496;28;20045;-62
2024/02/22 01:45:40;;;;;;;57.20;26.10;;;;;;;12.42;100.00;96890.50;5012762;28;20041;-60
2024/02/22 01:48:06;;;;;;;59.95;14.80;;;;;;;12.54;100.00;96882.31;5012114;28;20282;-61
2024/02/22 01:50:32;;;;;;;97.70;84.88;;;;;;;12.30;100.00;96878.66;5012071;28;20776;-60
2024/02/22 01:52:57;;;;;;;266.80;238.00;;;;;;;12.46;100.00;96874.72;5012600;28;20029;-59
2024/02/22 01:55:24;;;;;;;62.67;11.10;;;;;;;12.50;100.00;96876.34;5011957;28;20083;-62
2024/02/22 01:57:52;;;;;;;44.28;11.02;;;;;;;12.41;100.00;96870.53;5012761;28;20080;-60
2024/02/22 02:00:18;;;;;;;66.28;41.65;;;;;;;12.46;100.00;96860.81;5009143;28;20486;-60
2024/02/22 02:02:47;;;;;;;47.00;9.23;;;;;;;12.42;100.00;96869.63;5012778;28;20061;-58
2024/02/22 02:05:12;;;;;;;51.85;15.57;;;;;;;12.75;100.00;96853.88;5011349;28;20769;-59
2024/02/22 02:07:38;;;;;;;38.33;8.25;;;;;;;13.13;100.00;96857.06;5010659;28;20068;-59
2024/02/22 02:10:05;;;;;;;181.88;146.68;;;;;;;12.91;100.00;96848.22;5010971;28;20022;-59
2024/02/22 02:12:31;;;;;;;176.43;148.75;;;;;;;12.79;100.00;96846.81;5012706;28;20045;-59
2024/02/22 02:14:57;;;;;;;350.45;265.25;;;;;;;13.27;100.00;96834.88;5011251;28;20469;-61
2024/02/22 02:17:23;;;;;;;93.95;53.42;;;;;;;12.80;100.00;96844.16;5011734;28;20133;-63
2024/02/22 02:19:49;;;;;;;81.85;57.28;;;;;;;13.17;100.00;96831.72;5012163;28;20964;-61
2024/02/22 02:22:23;;;;;;;89.15;79.47;;;;;;;12.83;100.00;96830.16;5011172;28;20045;-60
2024/02/22 02:25:01;;;;;;;50.03;14.25;;;;;;;12.79;100.00;96831.16;5013078;28;20029;-61
2024/02/22 02:27:26;;;;;;;45.85;7.22;;;;;;;12.69;100.00;96836.66;5012296;28;20052;-62
2024/02/22 02:29:52;;;;;;;58.17;9.13;;;;;;;12.92;100.00;96834.25;5011188;28;20517;-60
2024/02/22 02:32:17;;;;;;;45.10;16.92;;;;;;;12.82;100.00;96826.72;5011449;28;20052;-60
2024/02/22 02:34:42;;;;;;;61.80;9.73;;;;;;;12.49;100.00;96829.44;5013494;28;20060;-61
2024/02/22 02:37:08;;;;;;;59.65;9.50;;;;;;;12.42;100.00;96813.13;5010403;28;20469;-59
2024/02/22 02:39:33;;;;;;;65.60;10.20;;;;;;;12.38;100.00;96814.13;5012330;28;20044;-59
2024/02/22 02:42:01;;;;;;;65.50;10.73;;;;;;;12.23;100.00;96807.59;5012413;28;20299;-61
2024/02/22 02:44:26;;;;;;;50.60;9.70;;;;;;;12.48;100.00;96801.66;5013054;28;20364;-60
2024/02/22 02:46:52;;;;;;;43.38;10.27;;;;;;;12.75;100.00;96797.38;5012917;28;20340;-62
2024/02/22 02:49:17;;;;;;;75.43;37.15;;;;;;;12.40;100.00;96786.22;5002998;28;20409;-61
2024/02/22 02:51:42;;;;;;;43.60;9.07;;;;;;;12.00;100.00;96776.97;5011540;28;20256;-61
2024/02/22 02:54:08;;;;;;;61.95;14.15;;;;;;;11.98;100.00;96788.28;5012649;28;20021;-61
2024/02/22 02:56:33;;;;;;;50.45;11.70;;;;;;;12.48;100.00;96778.19;5011964;28;20045;-60
2024/02/22 02:58:59;;;;;;;105.60;69.28;;;;;;;12.50;100.00;96772.03;5011164;28;20099;-60
2024/02/22 03:01:24;;;;;;;102.35;91.47;;;;;;;12.44;100.00;96768.75;5011546;28;20116;-64
2024/02/22 03:03:50;;;;;;;131.90;87.28;;;;;;;12.50;100.00;96760.75;5011610;28;20037;-60
2024/02/22 03:06:15;;;;;;;42.40;15.82;;;;;;;12.24;100.00;96762.38;5011401;28;21592;-61
2024/02/22 03:08:40;;;;;;;43.85;10.95;;;;;;;12.35;100.00;96760.31;5012668;28;20025;-61
2024/02/22 03:11:06;;;;;;;74.07;17.95;;;;;;;12.40;100.00;96764.53;5009740;28;20045;-60
2024/02/22 03:13:31;;;;;;;46.47;18.13;;;;;;;12.76;100.00;96761.66;5016043;28;20103;-62
2024/02/22 03:15:56;;;;;;;53.55;11.00;;;;;;;12.54;100.00;96754.53;5014033;28;20068;-59
2024/02/22 03:18:22;;;;;;;54.15;14.65;;;;;;;12.89;100.00;96756.94;5016030;28;20030;-60
2024/02/22 03:20:47;;;;;;;51.85;15.77;;;;;;;12.09;100.00;96748.91;5014224;28;20509;-59
2024/02/22 03:23:12;;;;;;;86.68;52.05;;;;;;;11.92;100.00;96740.72;5014616;28;20099;-62
2024/02/22 03:25:39;;;;;;;61.75;14.65;;;;;;;11.64;100.00;96742.34;5014816;28;20523;-60
2024/02/22 03:28:06;;;;;;;71.25;19.73;;;;;;;11.64;100.00;96736.25;5015008;28;20104;-62
2024/02/22 03:30:33;;;;;;;48.85;15.23;;;;;;;11.54;100.00;96733.09;5013861;28;20045;-64
2024/02/22 03:32:58;;;;;;;69.65;24.70;;;;;;;12.00;100.00;96733.53;5015059;28;20029;-60
2024/02/22 03:35:23;;;;;;;78.82;37.60;;;;;;;11.89;100.00;96732.97;5015482;28;20064;-60
2024/02/22 03:37:49;;;;;;;70.07;41.78;;;;;;;12.58;100.00;96735.28;5015057;28;20021;-61
2024/02/22 03:40:15;;;;;;;146.80;87.90;;;;;;;12.66;100.00;96731.56;5012774;28;20020;-59
2024/02/22 03:42:40;;;;;;;46.30;18.42;;;;;;;12.49;100.00;96731.22;5016434;28;20342;-62
2024/02/22 03:45:06;;;;;;;185.98;165.85;;;;;;;12.63;100.00;96732.53;5014348;28;20516;-61
2024/02/22 03:47:32;;;;;;;291.23;253.07;;;;;;;12.07;100.00;96724.63;5015276;28;20048;-62
2024/02/22 03:49:57;;;;;;;49.63;23.23;;;;;;;11.75;100.00;96712.53;5014885;28;20136;-59
2024/02/22 03:52:23;;;;;;;54.90;11.80;;;;;;;12.37;100.00;96716.78;5013763;28;20068;-61
2024/02/22 03:54:49;;;;;;;59.70;21.77;;;;;;;11.56;100.00;96711.31;5015317;28;20686;-60
2024/02/22 03:57:14;;;;;;;94.15;56.53;;;;;;;12.53;100.00;96702.41;5014261;28;20048;-61
2024/02/22 03:59:40;;;;;;;76.78;13.82;;;;;;;11.24;100.00;96710.44;5014565;28;20112;-62
2024/02/22 04:02:05;;;;;;;77.80;24.73;;;;;;;11.22;100.00;96706.16;5014152;28;20157;-62
2024/02/22 04:04:30;;;;;;;42.33;11.02;;;;;;;10.81;100.00;96700.22;5015682;28;20045;-59
2024/02/22 04:06:56;;;;;;;58.13;9.48;;;;;;;10.80;100.00;96702.88;5012940;28;20390;-61
2024/02/22 04:09:21;;;;;;;43.53;9.52;;;;;;;10.68;100.00;96701.44;5013524;28;20021;-59
2024/02/22 04:11:47;;;;;;;49.95;10.07;;;;;;;10.87;100.00;96698.41;5014100;28;20040;-61
2024/02/22 04:14:12;;;;;;;84.28;27.83;;;;;;;10.56;100.00;96697.41;5013314;28;20511;-59
2024/02/22 04:16:38;;;;;;;45.70;17.95;;;;;;;10.27;100.00;96697.16;5011613;28;20041;-59
2024/02/22 04:19:03;;;;;;;74.57;29.75;;;;;;;10.01;100.00;96693.41;5014266;28;20048;-60
2024/02/22 04:21:28;;;;;;;73.65;35.20;;;;;;;10.13;100.00;96688.81;5013961;28;20065;-59
2024/02/22 04:23:54;;;;;;;48.25;10.93;;;;;;;10.06;100.00;96695.03;5015358;28;20460;-59
2024/02/22 04:26:20;;;;;;;44.65;12.60;;;;;;;9.92;100.00;96682.34;5013861;28;21125;-61
2024/02/22 04:28:45;;;;;;;104.72;69.45;;;;;;;9.69;100.00;96681.94;5014724;28;20064;-61
2024/02/22 04:31:11;;;;;;;62.83;15.57;;;;;;;9.97;100.00;96683.97;5013052;28;20069;-62
2024/02/22 04:33:36;;;;;;;43.00;15.55;;;;;;;10.07;100.00;96686.34;5015153;28;20041;-61
2024/02/22 04:36:02;;;;;;;70.35;17.73;;;;;;;9.67;100.00;96677.69;5012384;28;20120;-59
2024/02/22 04:38:27;;;;;;;37.45;14.15;;;;;;;9.74;100.00;96674.06;5015142;28;20357;-59
2024/02/22 04:40:52;;;;;;;73.82;32.33;;;;;;;9.75;100.00;96674.06;5013278;28;20060;-59
2024/02/22 04:43:18;;;;;;;97.68;23.58;;;;;;;9.66;100.00;96670.78;5013840;28;20087;-62
2024/02/22 04:45:43;;;;;;;67.00;36.88;;;;;;;9.64;100.00;96671.69;5013422;28;20129;-60
2024/02/22 04:48:09;;;;;;;97.85;69.88;;;;;;;9.65;100.00;96664.72;5012018;28;20382;-62
2024/02/22 04:50:35;;;;;;;86.80;48.97;;;;;;;9.50;100.00;96653.78;5011980;28;20038;-59
2024/02/22 04:53:03;;;;;;;51.38;18.23;;;;;;;9.50;100.00;96664.16;5013313;28;20028;-58
2024/02/22 04:55:29;;;;;;;74.78;43.42;;;;;;;9.29;100.00;96668.06;5013620;28;20041;-58
2024/02/22 04:57:54;;;;;;;71.75;19.65;;;;;;;9.32;100.00;96660.19;5014041;28;20458;-58
2024/02/22 05:00:20;;;;;;;102.55;48.78;;;;;;;9.28;100.00;96660.31;5012167;28;20029;-60
2024/02/22 05:02:45;;;;;;;61.55;24.42;;;;;;;9.37;100.00;96660.97;5014306;28;20020;-59
2024/02/22 05:05:10;;;;;;;90.80;23.08;;;;;;;9.18;100.00;96655.31;5011945;28;20067;-60
2024/02/22 05:07:36;;;;;;;57.80;20.40;;;;;;;9.17;100.00;96653.56;5013524;28;20090;-60
2024/02/22 05:10:03;;;;;;;53.83;18.77;;;;;;;8.90;100.00;96653.22;5011253;28;20045;-62
2024/02/22 05:12:28;;;;;;;62.22;19.73;;;;;;;8.84;100.00;96651.56;5012298;28;20033;-61
2024/02/22 05:14:53;;;;;;;66.65;37.55;;;;;;;8.80;100.00;96655.09;5013644;28;20040;-60
2024/02/22 05:17:21;;;;;;;88.03;25.33;;;;;;;8.94;100.00;96652.28;5011184;28;20049;-62
2024/02/22 05:19:46;;;;;;;90.22;38.30;;;;;;;8.92;100.00;96648.00;5013649;28;20033;-58
2024/02/22 05:22:13;;;;;;;87.95;33.47;;;;;;;9.13;100.00;96644.13;5011905;28;20044;-57
2024/02/22 05:24:39;;;;;;;416.50;344.48;;;;;;;9.19;100.00;96635.38;5012928;28;20469;-58
2024/02/22 05:27:04;;;;;;;72.28;44.35;;;;;;;9.24;100.00;96637.00;5010381;28;20607;-60
2024/02/22 05:29:30;;;;;;;84.55;64.93;;;;;;;9.23;100.00;96637.91;5012361;28;20036;-61
2024/02/22 05:31:56;;;;;;;124.28;94.43;;;;;;;9.14;100.00;96627.72;5012157;28;20040;-60
2024/02/22 05:34:21;;;;;;;97.93;30.38;;;;;;;9.45;100.00;96626.22;5012623;28;20025;-62
2024/02/22 05:36:47;;;;;;;66.55;26.92;;;;;;;9.42;100.00;96621.94;5011779;28;20067;-63
2024/02/22 05:39:12;;;;;;;96.03;26.27;;;;;;;9.33;100.00;96614.34;5011928;28;20124;-59
2024/02/22 05:41:38;;;;;;;55.65;34.80;;;;;;;8.84;100.00;96606.66;5012834;28;20040;-62
2024/02/22 05:44:04;;;;;;;66.38;24.25;;;;;;;9.13;100.00;96610.41;5012116;28;20454;-62
2024/02/22 05:46:29;;;;;;;161.82;145.32;;;;;;;9.10;100.00;96589.75;5010004;28;20339;-60
2024/02/22 05:48:55;;;;;;;159.23;130.63;;;;;;;9.02;100.00;96596.81;5012963;28;20466;-62
2024/02/22 05:51:20;;;;;;;97.85;36.90;;;;;;;8.97;100.00;96591.72;5010580;28;20116;-60
2024/02/22 05:53:46;;;;;;;151.88;103.80;;;;;;;9.00;100.00;96578.69;5012554;28;20412;-60
2024/02/22 05:56:11;;;;;;;123.82;91.47;;;;;;;9.07;100.00;96576.84;5010638;28;20037;-61
2024/02/22 05:58:36;;;;;;;129.23;100.03;;;;;;;9.11;100.00;96557.72;5013330;28;20079;-60
2024/02/22 06:01:02;;;;;;;78.80;29.02;;;;;;;9.14;100.00;96562.00;5011252;28;20112;-64
2024/02/22 06:03:28;;;;;;;183.88;165.10;;;;;;;9.20;100.00;96560.13;5011909;28;20072;-61
2024/02/22 06:05:53;;;;;;;166.52;144.30;;;;;;;8.93;100.00;96549.44;5012085;28;20148;-60
2024/02/22 06:08:18;;;;;;;108.10;29.73;;;;;;;8.85;100.00;96544.41;5010842;28;20289;-60
2024/02/22 06:10:44;;;;;;;75.47;34.10;;;;;;;8.92;100.00;96546.88;5011983;28;20033;-60
2024/02/22 06:13:09;;;;;;;106.63;74.95;;;;;;;9.09;100.00;96542.19;5012176;28;20052;-58
2024/02/22 06:15:35;;;;;;;67.05;30.08;;;;;;;9.18;100.00;96543.75;5012984;28;20041;-59
2024/02/22 06:18:00;;;;;;;49.35;35.13;;;;;;;8.88;100.00;96538.31;5010839;28;20503;-62
2024/02/22 06:20:26;;;;;;;69.88;29.92;;;;;;;8.91;100.00;96547.78;5009171;28;21006;-61
2024/02/22 06:22:52;;;;;;;81.88;36.30;;;;;;;8.97;100.00;96543.31;5025517;28;20384;-60
2024/02/22 06:25:17;;;;;;;231.63;163.68;;;;;;;8.72;100.00;96543.78;5010405;28;20670;-63
2024/02/22 06:27:43;;;;;;;91.25;57.88;;;;;;;9.08;100.00;96534.44;5012308;28;20021;-59
2024/02/22 06:30:09;;;;;;;94.30;49.35;;;;;;;9.09;100.00;96543.91;5008299;28;20044;-60
2024/02/22 06:32:35;;;;;;;116.13;95.00;;;;;;;8.78;100.00;96548.00;5011271;28;20143;-58
2024/02/22 06:35:01;;;;;;;267.27;237.18;;;;;;;8.98;100.00;96544.16;5011789;28;20033;-61
2024/02/22 06:37:26;;;;;;;301.38;239.60;;;;;;;8.91;100.00;96547.78;5009745;28;20513;-58
2024/02/22 06:39:51;;;;;;;97.68;60.97;;;;;;;9.10;100.00;96538.72;5011508;28;20718;-59
2024/02/22 06:42:18;;;;;;;133.15;75.30;;;;;;;8.62;100.00;96537.09;5009428;28;20106;-60
2024/02/22 06:44:44;;;;;;;71.78;44.90;;;;;;;8.79;100.00;96536.75;5013291;28;20029;-57
2024/02/22 06:47:09;;;;;;;58.33;27.17;;;;;;;8.59;100.00;96537.13;5010325;28;20041;-59
2024/02/22 06:49:35;;;;;;;156.00;116.20;;;;;;;8.75;100.00;96529.91;5015291;28;20099;-59
2024/02/22 06:52:00;;;;;;;75.75;33.35;;;;;;;8.61;100.00;96525.00;5015538;28;20221;-58
2024/02/22 06:54:26;;;;;;;109.88;49.80;;;;;;;9.19;100.00;96516.94;5015034;28;20037;-59
2024/02/22 06:56:52;;;;;;;140.38;107.93;;;;;;;9.85;100.00;96521.50;5012764;28;20116;-61
2024/02/22 06:59:17;;;;;;;108.97;39.72;;;;;;;10.20;100.00;96521.50;5014569;28;20025;-63
2024/02/22 07:01:43;;;;;;;77.18;35.85;;;;;;;9.34;100.00;96515.75;5013305;28;20601;-62
2024/02/22 07:04:09;;;;;;;153.20;122.72;;;;;;;9.31;100.00;96513.19;5015128;28;20044;-62
2024/02/22 07:06:36;;;;;;;99.30;70.88;;;;;;;8.92;100.00;96513.16;5013015;28;20045;-61
2024/02/22 07:09:02;;;;;;;67.43;29.55;;;;;;;9.06;100.00;96511.13;5014352;28;20087;-63
2024/02/22 07:11:28;;;;;;;248.18;157.52;;;;;;;9.11;100.00;96503.25;5009966;28;20413;-60
2024/02/22 07:13:55;;;;;;;148.38;123.15;;;;;;;8.88;100.00;96493.38;5014823;28;20493;-63
2024/02/22 07:16:20;;;;;;;102.20;58.03;;;;;;;8.86;100.00;96498.59;5012633;28;20045;-62
2024/02/22 07:18:45;;;;;;;113.57;80.60;;;;;;;8.79;100.00;96494.41;5015084;28;20692;-62
2024/02/22 07:21:11;;;;;;;63.92;30.35;;;;;;;8.96;100.00;96487.16;5013564;28;20385;-60
2024/02/22 07:23:36;;;;;;;55.90;35.83;;;;;;;8.91;100.00;96501.09;5015856;28;20047;-65
2024/02/22 07:26:02;;;;;;;84.50;28.50;;;;;;;8.97;100.00;96488.00;5013437;28;20272;-63
2024/02/22 07:28:27;;;;;;;223.30;190.13;;;;;;;8.95;100.00;96488.03;5013882;28;20116;-61
2024/02/22 07:30:53;;;;;;;91.55;54.55;;;;;;;8.94;100.00;96482.88;5013749;28;20125;-63
2024/02/22 07:33:19;;;;;;;88.55;25.17;;;;;;;9.13;100.00;96485.09;5010857;28;20095;-59
2024/02/22 07:35:44;;;;;;;70.60;51.70;;;;;;;8.99;100.00;96470.69;5014730;28;20543;-61
2024/02/22 07:38:10;;;;;;;67.90;27.52;;;;;;;9.18;100.00;96476.31;5014279;28;20068;-59
2024/02/22 07:40:35;;;;;;;101.47;90.45;;;;;;;9.02;100.00;96472.34;5011812;28;20361;-61
2024/02/22 07:43:00;;;;;;;77.68;28.90;;;;;;;9.10;100.00;96470.44;5013860;28;20425;-62
2024/02/22 07:45:29;;;;;;;114.07;40.92;;;;;;;9.41;100.00;96472.34;5011984;28;20029;-60
2024/02/22 07:47:58;;;;;;;83.57;26.27;;;;;;;9.45;100.00;96471.38;5012678;28;20037;-62
2024/02/22 07:50:26;;;;;;;108.80;44.83;;;;;;;9.57;100.00;96475.41;5011277;28;20061;-61
2024/02/22 07:52:52;;;;;;;132.13;99.10;;;;;;;9.20;100.00;96471.94;5013706;28;20536;-62
2024/02/22 07:55:17;;;;;;;99.28;27.58;;;;;;;9.27;100.00;96477.00;5012278;28;20298;-62
2024/02/22 07:57:43;;;;;;;69.40;33.10;;;;;;;9.62;100.00;96473.56;5014059;28;20041;-62
2024/02/22 08:00:08;;;;;;;70.40;23.65;;;;;;;9.53;100.00;96471.19;5012901;28;20020;-60
2024/02/22 08:02:34;;;;;;;140.85;127.00;;;;;;;9.37;100.00;96468.09;5012776;28;20532;-61
2024/02/22 08:04:59;;;;;;;76.78;45.17;;;;;;;9.47;100.00;96464.41;5014416;28;20543;-60
2024/02/22 08:07:25;;;;;;;125.53;38.83;;;;;;;9.43;100.00;96461.94;5010898;28;20069;-62
2024/02/22 08:09:50;;;;;;;62.97;31.55;;;;;;;9.41;100.00;96450.72;5013198;28;20167;-64
2024/02/22 08:12:16;;;;;;;73.75;48.85;;;;;;;9.53;100.00;96460.81;5012340;28;20029;-64
2024/02/22 08:14:41;;;;;;;77.53;27.27;;;;;;;9.68;100.00;96451.81;5013429;28;20025;-59
2024/02/22 08:17:06;;;;;;;62.88;30.27;;;;;;;9.29;100.00;96452.72;5013885;28;20034;-61
2024/02/22 08:19:32;;;;;;;107.10;34.95;;;;;;;9.42;100.00;96445.50;5012792;28;20041;-61
2024/02/22 08:21:57;;;;;;;94.22;33.33;;;;;;;9.48;100.00;96447.97;5012942;28;20345;-60
2024/02/22 08:24:23;;;;;;;189.00;136.68;;;;;;;9.40;100.00;96447.28;5013196;28;20144;-61
2024/02/22 08:26:48;;;;;;;89.65;68.88;;;;;;;9.47;100.00;96442.81;5013045;28;20111;-60
2024/02/22 08:29:14;;;;;;;96.53;33.08;;;;;;;9.51;100.00;96442.69;5013944;28;20036;-60
2024/02/22 08:31:39;;;;;;;39.78;22.10;;;;;;;9.80;100.00;96442.00;5012064;28;20072;-61
2024/02/22 08:34:05;;;;;;;104.53;68.85;;;;;;;9.89;100.00;96431.38;5013709;28;20572;-62
2024/02/22 08:36:31;;;;;;;179.55;131.15;;;;;;;9.51;100.00;96424.50;5011653;28;20048;-59
2024/02/22 08:38:58;;;;;;;205.52;172.25;;;;;;;9.26;100.00;96424.25;5013453;28;20018;-61
2024/02/22 08:41:24;;;;;;;137.73;85.80;;;;;;;9.60;100.00;96418.25;5011049;28;20535;-61
2024/02/22 08:43:51;;;;;;;210.35;117.72;;;;;;;9.48;100.00;96423.75;5012546;28;20033;-61
2024/02/22 08:46:16;;;;;;;71.72;43.75;;;;;;;9.36;100.00;96417.94;5012419;28;20107;-59
2024/02/22 08:48:42;;;;;;;80.13;49.13;;;;;;;9.57;100.00;96420.09;5011915;28;20454;-59
2024/02/22 08:51:11;;;;;;;112.53;81.35;;;;;;;9.56;100.00;96410.56;5012681;28;20041;-61
2024/02/22 08:53:38;;;;;;;117.85;95.43;;;;;;;9.64;100.00;96413.81;5013070;28;20021;-60
2024/02/22 08:56:04;;;;;;;113.35;69.05;;;;;;;9.90;100.00;96420.97;5012547;28;20033;-61
2024/02/22 08:58:31;;;;;;;86.20;25.80;;;;;;;10.00;100.00;96420.72;5012881;28;20553;-62
2024/02/22 09:00:57;;;;;;;90.72;68.20;;;;;;;9.82;100.00;96415.13;5011273;28;20065;-63
2024/02/22 09:03:22;;;;;;;96.00;27.25;;;;;;;9.96;100.00;96412.16;5011190;28;20112;-62
2024/02/22 09:05:47;;;;;;;64.43;24.10;;;;;;;10.00;100.00;96413.78;5013260;28;20452;-60
2024/02/22 09:08:16;;;;;;;94.88;65.80;;;;;;;9.92;100.00;96400.16;5013163;28;20112;-62
2024/02/22 09:10:41;;;;;;;76.53;32.05;;;;;;;9.81;100.00;96407.38;5008042;28;20065;-60
2024/02/22 09:13:07;;;;;;;123.65;98.07;;;;;;;10.00;100.00;96392.16;5013517;28;20175;-60
2024/02/22 09:15:34;;;;;;;81.10;32.38;;;;;;;10.01;100.00;96399.03;5010631;28;20111;-62
2024/02/22 09:17:59;;;;;;;114.72;70.68;;;;;;;9.67;100.00;96399.91;5011579;28;20037;-61
2024/02/22 09:20:27;;;;;;;103.28;52.17;;;;;;;9.62;100.00;96395.69;5009467;28;20034;-60
2024/02/22 09:22:53;;;;;;;166.95;121.13;;;;;;;9.66;100.00;96390.44;5012107;28;20053;-59
2024/02/22 09:25:18;;;;;;;87.43;35.10;;;;;;;9.92;100.00;96388.91;5012122;28;20039;-60
2024/02/22 09:27:43;;;;;;;64.78;30.15;;;;;;;10.26;100.00;96390.59;5011990;28;20025;-60
2024/02/22 09:30:09;;;;;;;59.83;30.00;;;;;;;10.21;100.00;96388.09;5011757;28;20370;-61
2024/02/22 09:32:35;;;;;;;103.53;49.60;;;;;;;10.01;100.00;96389.53;5010738;28;20037;-60
2024/02/22 09:35:01;;;;;;;195.25;175.23;;;;;;;10.12;100.00;96380.56;5013289;28;20039;-60
2024/02/22 09:37:27;;;;;;;94.70;35.63;;;;;;;10.16;100.00;96375.25;5010928;28;20037;-61
2024/02/22 09:39:53;;;;;;;76.95;24.80;;;;;;;10.43;100.00;96377.09;5011568;28;20413;-60
2024/02/22 09:42:19;;;;;;;103.10;81.90;;;;;;;10.16;100.00;96374.41;5011939;28;20132;-63
2024/02/22 09:44:46;;;;;;;69.75;27.15;;;;;;;10.20;100.00;96372.59;5010808;28;20037;-60
2024/02/22 09:47:14;;;;;;;147.98;132.00;;;;;;;10.27;100.00;96372.34;5009836;28;20219;-60
2024/02/22 09:49:41;;;;;;;211.52;166.15;;;;;;;10.20;100.00;96364.78;5010094;28;20043;-59
2024/02/22 09:52:08;;;;;;;74.93;25.30;;;;;;;10.32;100.00;96361.81;5010654;28;20044;-61
2024/02/22 09:54:33;;;;;;;86.18;25.27;;;;;;;10.38;100.00;96361.66;5009813;28;20025;-62
2024/02/22 09:56:59;;;;;;;67.97;38.05;;;;;;;10.25;100.00;96362.91;5011317;28;20962;-63
2024/02/22 09:59:24;;;;;;;99.80;51.17;;;;;;;10.47;100.00;96349.31;5010621;28;20073;-61
2024/02/22 10:01:50;;;;;;;431.30;393.15;;;;;;;9.44;100.00;96350.31;5012111;28;20033;-61
2024/02/22 10:04:19;;;;;;;95.43;82.32;;;;;;;9.12;100.00;96349.34;5014631;28;20052;-61
2024/02/22 10:06:45;;;;;;;88.63;41.50;;;;;;;9.28;100.00;96354.19;5012066;28;20220;-60
2024/02/22 10:09:11;;;;;;;275.30;241.30;;;;;;;9.11;100.00;96343.34;5012496;28;20091;-59
2024/02/22 10:11:43;;;;;;;105.78;81.50;;;;;;;9.28;100.00;96344.63;5011279;28;20131;-60
2024/02/22 10:14:11;;;;;;;218.80;195.95;;;;;;;9.19;100.00;96339.69;5014752;28;20030;-63
2024/02/22 10:16:38;;;;;;;209.98;169.75;;;;;;;9.22;100.00;96337.03;5011647;28;20045;-59
2024/02/22 10:19:03;;;;;;;250.13;223.57;;;;;;;9.29;100.00;96338.59;5013310;28;20029;-62
2024/02/22 10:21:29;;;;;;;187.52;167.90;;;;;;;9.53;100.00;96335.41;5013971;28;20064;-63
2024/02/22 10:23:56;;;;;;;175.43;157.60;;;;;;;9.77;100.00;96326.94;5019590;28;20033;-62
2024/02/22 10:26:25;;;;;;;92.22;75.05;;;;;;;9.76;100.00;96330.44;5018569;28;20044;-61
2024/02/22 10:29:07;;;;;;;85.80;69.20;;;;;;;9.96;100.00;96326.47;5016067;28;20025;-62
2024/02/22 10:31:43;;;;;;;126.97;88.97;;;;;;;10.56;100.00;96315.25;5014119;28;20044;-61
2024/02/22 10:34:10;;;;;;;51.53;32.90;;;;;;;11.11;100.00;96305.75;5019555;28;20516;-63
2024/02/22 10:36:36;;;;;;;77.63;18.08;;;;;;;11.25;100.00;96303.53;5016559;28;20128;-62
2024/02/22 10:39:02;;;;;;;126.70;97.00;;;;;;;11.01;100.00;96284.41;5018116;28;20453;-62
2024/02/22 10:41:29;;;;;;;64.13;22.35;;;;;;;11.65;100.00;96284.91;5015264;28;20045;-59
2024/02/22 10:43:55;;;;;;;110.55;77.75;;;;;;;11.49;100.00;96277.59;5016951;28;20056;-60
2024/02/22 10:46:26;;;;;;;51.58;33.17;;;;;;;11.38;100.00;96270.16;5016776;28;20493;-60
2024/02/22 10:48:51;;;;;;;267.67;170.88;;;;;;;11.56;100.00;96254.81;5017466;28;20517;-61
2024/02/22 10:51:20;;;;;;;59.75;10.70;;;;;;;11.15;100.00;96268.34;5014956;28;20079;-61
2024/02/22 10:53:54;;;;;;;90.25;77.18;;;;;;;11.31;100.00;96243.50;5016534;28;20029;-62
2024/02/22 10:56:23;;;;;;;62.85;40.78;;;;;;;11.83;100.00;96245.16;5015466;28;20115;-63
2024/02/22 10:58:51;;;;;;;69.78;33.65;;;;;;;11.05;100.00;96241.78;5015485;28;20326;-60
2024/02/22 11:01:18;;;;;;;55.22;13.98;;;;;;;11.33;100.00;96243.47;5014539;28;20409;-59
2024/02/22 11:03:44;;;;;;;72.35;14.30;;;;;;;11.56;100.00;96237.44;5017485;28;20070;-63